Time;durP1;ratioP1;P1;durP2;ratioP2;P2;SDS_P1;SDS_P2;PMS_P1;PMS_P2;Temp;Humidity;BMP_temperature;BMP_pressure;BME280_temperature;BME280_humidity;BME280_pressure;Samples;Min_cycle;Max_cycle;Signal;HPM_P1;HPM_P2
2024/03/20 00:01:46;;;;;;;43.00;21.17;;;;;;;-0.07;81.55;101027.08;1791833;79;25671;-63
2024/03/20 00:04:13;;;;;;;41.30;22.40;;;;;;;-0.10;82.01;101022.19;1794644;79;25839;-62
2024/03/20 00:06:39;;;;;;;42.25;20.85;;;;;;;-0.13;82.17;101026.12;1781994;79;27763;-62
2024/03/20 00:09:07;;;;;;;43.90;22.48;;;;;;;-0.18;82.04;101019.84;1785685;79;25388;-62
2024/03/20 00:11:35;;;;;;;40.17;21.25;;;;;;;-0.22;82.13;101026.11;1794599;79;25742;-63
2024/03/20 00:14:05;;;;;;;46.83;23.32;;;;;;;-0.27;82.28;101019.31;1784314;79;26445;-63
2024/03/20 00:16:32;;;;;;;41.92;21.77;;;;;;;-0.31;82.59;101022.90;1783882;79;25385;-63
2024/03/20 00:18:58;;;;;;;44.58;21.02;;;;;;;-0.35;82.85;101022.24;1776893;80;27308;-62
2024/03/20 00:21:25;;;;;;;40.60;20.72;;;;;;;-0.38;82.62;101030.92;1797501;79;25713;-68
2024/03/20 00:23:52;;;;;;;38.60;20.43;;;;;;;-0.44;82.38;101023.04;1788429;78;25479;-61
2024/03/20 00:26:19;;;;;;;41.48;20.05;;;;;;;-0.48;82.48;101023.96;1788888;78;26415;-61
2024/03/20 00:28:45;;;;;;;37.65;19.35;;;;;;;-0.53;82.71;101022.47;1786683;79;25778;-62
2024/03/20 00:31:12;;;;;;;39.05;20.37;;;;;;;-0.58;82.85;101024.47;1799141;79;26936;-62
2024/03/20 00:33:38;;;;;;;37.67;19.57;;;;;;;-0.63;82.74;101020.33;1794346;79;25365;-62
2024/03/20 00:36:06;;;;;;;37.10;18.40;;;;;;;-0.69;82.74;101017.72;1788544;79;25411;-61
2024/03/20 00:38:32;;;;;;;41.73;19.23;;;;;;;-0.72;82.92;101020.80;1807616;78;25595;-60
2024/03/20 00:40:58;;;;;;;38.42;19.10;;;;;;;-0.79;82.85;101015.01;1796277;78;25788;-60
2024/03/20 00:43:26;;;;;;;38.85;19.32;;;;;;;-0.82;83.43;101011.97;1791984;79;27312;-61
2024/03/20 00:45:53;;;;;;;32.70;17.40;;;;;;;-0.85;83.50;101009.25;1793231;78;25525;-59
2024/03/20 00:48:19;;;;;;;38.38;17.37;;;;;;;-0.87;83.77;101007.82;1786981;79;25718;-61
2024/03/20 00:50:46;;;;;;;37.73;17.12;;;;;;;-0.88;84.06;101006.21;1798512;79;25638;-62
2024/03/20 00:53:13;;;;;;;83.00;75.35;;;;;;;-0.89;84.14;101013.87;1798351;79;25507;-62
2024/03/20 00:55:41;;;;;;;67.35;60.10;;;;;;;-0.93;84.23;101002.86;1787123;79;27198;-62
2024/03/20 00:58:12;;;;;;;39.98;20.00;;;;;;;-0.96;84.42;101004.09;1791686;79;25443;-64
2024/03/20 01:00:40;;;;;;;46.20;19.20;;;;;;;-0.98;84.06;100997.38;1792729;79;25385;-61
2024/03/20 01:03:07;;;;;;;40.12;20.65;;;;;;;-1.01;84.23;101003.92;1796290;78;25782;-60
2024/03/20 01:05:34;;;;;;;40.05;20.00;;;;;;;-1.04;84.34;101000.39;1788418;79;25413;-64
2024/03/20 01:08:01;;;;;;;37.50;20.27;;;;;;;-1.03;84.64;101006.50;1792188;79;27681;-60
2024/03/20 01:10:28;;;;;;;41.77;21.35;;;;;;;-1.06;84.59;101002.42;1785764;78;25385;-61
2024/03/20 01:12:54;;;;;;;39.15;18.55;;;;;;;-1.07;84.98;101003.96;1795952;79;25771;-60
2024/03/20 01:15:21;;;;;;;36.95;17.77;;;;;;;-1.08;85.11;101004.48;1786498;79;25691;-61
2024/03/20 01:17:47;;;;;;;37.98;18.42;;;;;;;-1.11;84.81;101004.10;1783157;78;25435;-60
2024/03/20 01:20:14;;;;;;;37.58;17.40;;;;;;;-1.14;84.84;101006.69;1785868;78;27621;-58
2024/03/20 01:22:41;;;;;;;60.92;51.88;;;;;;;-1.17;85.04;101009.23;1776773;80;25659;-62
2024/03/20 01:25:09;;;;;;;101.18;91.57;;;;;;;-1.18;85.32;101010.25;1800368;79;25583;-63
2024/03/20 01:27:35;;;;;;;38.98;18.05;;;;;;;-1.21;85.14;101000.08;1788012;79;25646;-62
2024/03/20 01:30:03;;;;;;;48.68;23.38;;;;;;;-1.23;85.13;101005.30;1797406;79;25451;-62
2024/03/20 01:32:30;;;;;;;45.65;19.60;;;;;;;-1.23;85.15;101009.27;1795759;79;27272;-60
2024/03/20 01:34:57;;;;;;;39.90;18.82;;;;;;;-1.24;85.29;101004.98;1797935;79;25444;-59
2024/03/20 01:37:24;;;;;;;43.83;21.05;;;;;;;-1.25;85.52;101015.31;1787914;79;25850;-62
2024/03/20 01:39:50;;;;;;;44.27;21.42;;;;;;;-1.25;85.71;101020.63;1785348;78;25643;-70
2024/03/20 01:42:17;;;;;;;39.90;20.57;;;;;;;-1.27;85.82;101013.39;1799836;79;25432;-62
2024/03/20 01:44:44;;;;;;;44.67;22.85;;;;;;;-1.30;85.96;101015.14;1782115;79;28244;-62
2024/03/20 01:47:11;;;;;;;48.92;25.05;;;;;;;-1.33;85.94;101017.69;1793631;78;25823;-61
2024/03/20 01:49:39;;;;;;;48.15;22.67;;;;;;;-1.35;85.94;101019.22;1776845;79;25768;-61
2024/03/20 01:52:07;;;;;;;44.20;22.95;;;;;;;-1.38;86.04;101015.69;1792345;79;26285;-61
2024/03/20 01:54:34;;;;;;;42.75;20.75;;;;;;;-1.40;86.04;101012.93;1787802;78;25459;-60
2024/03/20 01:57:00;;;;;;;44.50;20.92;;;;;;;-1.42;86.06;101017.13;1783687;79;26970;-60
2024/03/20 01:59:28;;;;;;;44.38;20.68;;;;;;;-1.46;86.00;101015.92;1793128;79;25342;-62
2024/03/20 02:01:54;;;;;;;41.53;19.62;;;;;;;-1.49;85.85;101007.06;1791556;79;25758;-62
2024/03/20 02:04:20;;;;;;;43.92;22.75;;;;;;;-1.51;86.02;101011.25;1804099;78;25623;-61
2024/03/20 02:06:47;;;;;;;47.75;22.65;;;;;;;-1.52;86.12;101014.11;1789554;79;25436;-60
2024/03/20 02:09:14;;;;;;;52.00;24.12;;;;;;;-1.56;85.99;101015.05;1792722;79;27505;-62
2024/03/20 02:11:41;;;;;;;44.73;20.97;;;;;;;-1.58;85.82;101018.42;1791332;79;27159;-62
2024/03/20 02:14:08;;;;;;;44.63;23.27;;;;;;;-1.64;85.59;101015.27;1776473;79;26014;-62
2024/03/20 02:16:35;;;;;;;48.92;23.35;;;;;;;-1.68;85.65;101011.95;1782608;79;25753;-62
2024/03/20 02:19:01;;;;;;;46.90;22.95;;;;;;;-1.72;85.66;101015.50;1791669;78;25286;-62
2024/03/20 02:21:28;;;;;;;44.35;24.02;;;;;;;-1.74;85.96;101021.05;1803586;79;27339;-61
2024/03/20 02:23:54;;;;;;;43.13;22.02;;;;;;;-1.76;85.90;101018.28;1756780;80;25462;-62
2024/03/20 02:26:21;;;;;;;51.37;23.62;;;;;;;-1.78;85.92;101025.12;1803361;79;25801;-62
2024/03/20 02:28:47;;;;;;;40.92;23.60;;;;;;;-1.81;85.92;101021.55;1792375;79;25713;-66
2024/03/20 02:31:16;;;;;;;42.78;24.43;;;;;;;-1.84;86.00;101029.92;1792596;79;25670;-62
2024/03/20 02:33:44;;;;;;;44.93;22.67;;;;;;;-1.85;86.25;101023.53;1777662;79;27388;-60
2024/03/20 02:36:12;;;;;;;47.05;22.48;;;;;;;-1.85;86.38;101020.88;1795996;79;25530;-59
2024/03/20 02:38:41;;;;;;;43.92;21.75;;;;;;;-1.88;86.25;101018.11;1797877;79;25601;-62
2024/03/20 02:41:09;;;;;;;42.98;21.23;;;;;;;-1.90;86.12;101021.48;1776426;79;25708;-62
2024/03/20 02:43:35;;;;;;;42.78;21.87;;;;;;;-1.93;86.09;101017.92;1791627;79;26265;-60
2024/03/20 02:46:04;;;;;;;43.87;21.30;;;;;;;-1.96;86.15;101017.84;1790824;79;27739;-60
2024/03/20 02:48:34;;;;;;;39.60;19.92;;;;;;;-1.97;86.30;101016.20;1782434;79;25529;-63
2024/03/20 02:51:02;;;;;;;42.55;21.20;;;;;;;-1.97;86.69;101016.72;1787532;79;26335;-61
2024/03/20 02:53:29;;;;;;;42.67;20.68;;;;;;;-1.98;86.45;101018.54;1787840;79;25722;-61
2024/03/20 02:55:57;;;;;;;35.15;19.15;;;;;;;-1.99;86.35;101014.77;1796226;79;25421;-62
2024/03/20 02:58:23;;;;;;;41.50;20.72;;;;;;;-2.01;86.51;101014.16;1785110;79;28192;-59
2024/03/20 03:00:49;;;;;;;44.70;19.12;;;;;;;-2.05;86.38;101015.09;1795303;78;25602;-62
2024/03/20 03:03:16;;;;;;;43.15;19.75;;;;;;;-2.08;86.43;101011.53;1789241;78;25549;-59
2024/03/20 03:05:42;;;;;;;39.33;19.95;;;;;;;-2.11;86.56;101011.94;1789332;78;26048;-62
2024/03/20 03:08:08;;;;;;;39.50;18.67;;;;;;;-2.13;86.57;101013.50;1798067;78;25782;-59
2024/03/20 03:10:35;;;;;;;41.02;19.70;;;;;;;-2.16;86.36;101006.44;1798751;78;27317;-62
2024/03/20 03:13:02;;;;;;;42.20;19.87;;;;;;;-2.19;86.28;101004.23;1793781;79;25387;-62
2024/03/20 03:15:36;;;;;;;40.10;19.00;;;;;;;-2.22;86.39;101008.09;1780297;79;25520;-62
2024/03/20 03:18:01;;;;;;;43.23;18.52;;;;;;;-2.24;86.46;101007.48;1786505;78;25632;-62
2024/03/20 03:20:29;;;;;;;35.65;17.48;;;;;;;-2.24;86.76;101014.11;1795221;79;25696;-61
2024/03/20 03:22:55;;;;;;;38.95;18.77;;;;;;;-2.23;87.28;101014.43;1796083;78;27247;-59
2024/03/20 03:25:22;;;;;;;39.05;18.40;;;;;;;-2.22;87.36;101006.77;1785674;79;25773;-62
2024/03/20 03:27:49;;;;;;;40.30;19.00;;;;;;;-2.24;87.13;101008.01;1810362;79;25443;-63
2024/03/20 03:30:17;;;;;;;37.70;19.57;;;;;;;-2.26;87.14;101011.66;1789185;79;25606;-61
2024/03/20 03:32:44;;;;;;;39.55;19.30;;;;;;;-2.26;87.18;101007.69;1797384;78;26307;-61
2024/03/20 03:35:13;;;;;;;37.73;19.30;;;;;;;-2.28;86.83;101004.44;1785609;79;27372;-62
2024/03/20 03:37:41;;;;;;;43.02;18.42;;;;;;;-2.30;86.92;101013.60;1785614;79;25675;-63
2024/03/20 03:40:11;;;;;;;39.18;19.98;;;;;;;-2.32;87.28;101008.50;1809096;79;25935;-63
2024/03/20 03:42:41;;;;;;;38.67;18.40;;;;;;;-2.32;87.38;101000.55;1783614;79;25715;-61
2024/03/20 03:45:09;;;;;;;41.88;20.43;;;;;;;-2.32;87.46;101005.85;1782520;79;25639;-63
2024/03/20 03:47:35;;;;;;;39.98;19.23;;;;;;;-2.31;87.53;101008.02;1790508;79;27305;-62
2024/03/20 03:50:10;;;;;;;35.38;19.10;;;;;;;-2.31;87.77;101009.34;1733438;82;25468;-63
2024/03/20 03:52:37;;;;;;;41.50;20.40;;;;;;;-2.33;87.45;101009.54;1788998;78;25591;-62
2024/03/20 03:55:09;;;;;;;38.53;18.65;;;;;;;-2.34;87.56;101002.59;1787541;79;25979;-61
2024/03/20 03:57:35;;;;;;;35.00;16.40;;;;;;;-2.36;87.54;101002.00;1782104;79;25528;-63
2024/03/20 04:00:03;;;;;;;34.20;17.70;;;;;;;-2.36;87.72;101003.84;1794644;79;27195;-63
2024/03/20 04:02:31;;;;;;;37.55;17.90;;;;;;;-2.36;87.70;101001.19;1789088;79;25614;-63
2024/03/20 04:04:57;;;;;;;39.98;18.70;;;;;;;-2.39;87.50;100997.62;1790910;79;25532;-63
2024/03/20 04:07:24;;;;;;;52.30;42.23;;;;;;;-2.43;87.38;100997.22;1787672;79;25737;-63
2024/03/20 04:09:50;;;;;;;61.37;54.95;;;;;;;-2.45;87.53;101001.40;1799321;79;25540;-63
2024/03/20 04:12:17;;;;;;;44.53;29.77;;;;;;;-2.47;87.55;100998.63;1795963;78;27351;-63
2024/03/20 04:14:45;;;;;;;64.20;57.40;;;;;;;-2.45;87.98;101000.59;1776720;80;25539;-63
2024/03/20 04:17:12;;;;;;;84.05;76.00;;;;;;;-2.47;87.95;100999.47;1776755;79;25857;-63
2024/03/20 04:19:38;;;;;;;36.30;18.87;;;;;;;-2.47;87.56;101003.94;1780651;79;25618;-62
2024/03/20 04:22:06;;;;;;;41.45;20.00;;;;;;;-2.49;87.51;101005.45;1791716;79;25666;-61
2024/03/20 04:24:33;;;;;;;38.40;18.73;;;;;;;-2.52;87.22;101012.52;1780347;78;27938;-64
2024/03/20 04:26:59;;;;;;;36.77;19.32;;;;;;;-2.56;87.30;101008.62;1788199;79;25772;-60
2024/03/20 04:29:26;;;;;;;39.70;20.12;;;;;;;-2.58;87.26;101012.52;1794524;79;25555;-62
2024/03/20 04:31:53;;;;;;;40.30;19.67;;;;;;;-2.59;87.55;101014.33;1790680;79;25615;-59
2024/03/20 04:34:19;;;;;;;39.53;20.12;;;;;;;-2.60;87.62;101014.04;1801541;79;25837;-61
2024/03/20 04:36:46;;;;;;;43.08;20.23;;;;;;;-2.58;87.86;101021.27;1783944;79;27924;-62
2024/03/20 04:39:13;;;;;;;39.88;20.70;;;;;;;-2.57;88.06;101022.08;1791625;78;25689;-59
2024/03/20 04:41:42;;;;;;;39.23;20.15;;;;;;;-2.59;88.38;101016.97;1798863;79;25502;-63
2024/03/20 04:44:11;;;;;;;42.53;21.82;;;;;;;-2.56;88.55;101017.09;1789235;79;25621;-63
2024/03/20 04:46:38;;;;;;;41.30;20.97;;;;;;;-2.56;88.58;101018.42;1807114;79;25723;-63
2024/03/20 04:49:05;;;;;;;38.13;19.82;;;;;;;-2.57;88.34;101018.94;1786132;79;27680;-63
2024/03/20 04:51:32;;;;;;;42.83;21.80;;;;;;;-2.56;88.27;101029.02;1778760;79;26126;-62
2024/03/20 04:54:00;;;;;;;43.78;21.33;;;;;;;-2.58;88.23;101021.27;1797510;79;25395;-63
2024/03/20 04:56:26;;;;;;;42.88;22.15;;;;;;;-2.58;88.35;101020.46;1801552;79;25629;-62
2024/03/20 04:58:52;;;;;;;46.18;21.87;;;;;;;-2.58;88.55;101020.46;1779900;79;25600;-62
2024/03/20 05:01:19;;;;;;;42.27;21.65;;;;;;;-2.55;88.82;101018.73;1804212;79;27741;-67
2024/03/20 05:03:47;;;;;;;37.83;19.98;;;;;;;-2.54;88.94;101025.12;1770627;80;25688;-62
2024/03/20 05:06:14;;;;;;;41.33;20.25;;;;;;;-2.53;88.72;101028.61;1782689;78;25656;-62
2024/03/20 05:08:40;;;;;;;45.12;22.40;;;;;;;-2.50;88.95;101030.34;1779445;79;26261;-63
2024/03/20 05:11:08;;;;;;;43.10;20.43;;;;;;;-2.46;89.13;101033.39;1789758;79;25726;-63
2024/03/20 05:13:35;;;;;;;42.43;20.20;;;;;;;-2.44;89.30;101034.80;1777364;79;28132;-62
2024/03/20 05:16:03;;;;;;;39.67;19.90;;;;;;;-2.39;89.46;101032.88;1782456;79;25808;-62
2024/03/20 05:18:33;;;;;;;40.45;20.32;;;;;;;-2.35;89.82;101035.92;1788099;79;25419;-59
2024/03/20 05:21:00;;;;;;;47.55;21.48;;;;;;;-2.26;90.15;101031.55;1791493;79;26240;-62
2024/03/20 05:23:26;;;;;;;40.73;21.07;;;;;;;-2.18;90.37;101035.00;1776621;80;25807;-62
2024/03/20 05:26:01;;;;;;;41.10;20.20;;;;;;;-2.09;90.77;101036.42;1776600;78;27643;-62
2024/03/20 05:28:28;;;;;;;46.98;21.77;;;;;;;-2.00;90.93;101039.15;1778933;78;26357;-63
2024/03/20 05:30:55;;;;;;;46.65;22.27;;;;;;;-1.88;91.20;101040.66;1796152;78;26183;-62
2024/03/20 05:33:23;;;;;;;45.45;21.85;;;;;;;-1.79;91.44;101034.61;1797801;79;25769;-63
2024/03/20 05:35:50;;;;;;;48.85;24.43;;;;;;;-1.70;91.69;101034.70;1785793;79;25308;-62
2024/03/20 05:38:16;;;;;;;53.70;27.15;;;;;;;-1.57;91.87;101043.11;1795018;79;27315;-62
2024/03/20 05:40:43;;;;;;;50.80;23.65;;;;;;;-1.47;91.98;101039.50;1785368;78;25467;-63
2024/03/20 05:43:10;;;;;;;50.80;22.80;;;;;;;-1.39;91.94;101043.24;1777326;79;25344;-62
2024/03/20 05:45:40;;;;;;;45.30;23.52;;;;;;;-1.29;91.98;101045.95;1809940;78;26799;-62
2024/03/20 05:48:09;;;;;;;48.98;22.82;;;;;;;-1.21;92.01;101043.89;1786084;78;25530;-63
2024/03/20 05:50:37;;;;;;;44.60;23.90;;;;;;;-1.09;92.15;101052.48;1796551;78;30167;-64
2024/03/20 05:53:06;;;;;;;47.78;24.32;;;;;;;-1.00;92.42;101057.34;1795987;79;25713;-62
2024/03/20 05:55:33;;;;;;;;;;;;;;;-0.88;92.69;101058.00;1791477;79;25386;-71
2024/03/20 05:57:59;;;;;;;44.20;22.15;;;;;;;-0.78;92.83;101057.02;1775302;80;25609;-63
2024/03/20 06:00:26;;;;;;;47.55;23.60;;;;;;;-0.67;92.95;101061.63;1790566;78;25771;-64
2024/03/20 06:02:55;;;;;;;50.63;23.98;;;;;;;-0.57;92.94;101055.84;1777504;79;27511;-64
2024/03/20 06:05:24;;;;;;;50.25;23.15;;;;;;;-0.46;93.02;101055.64;1782950;79;26250;-64
2024/03/20 06:07:52;;;;;;;49.83;24.27;;;;;;;-0.34;93.17;101058.41;1785303;79;25859;-65
2024/03/20 06:10:18;;;;;;;51.08;23.87;;;;;;;-0.25;93.22;101053.14;1782717;79;26030;-61
2024/03/20 06:12:45;;;;;;;47.67;23.27;;;;;;;-0.13;93.39;101058.55;1788917;79;25668;-61
2024/03/20 06:15:14;;;;;;;49.63;26.40;;;;;;;-0.02;93.46;101054.66;1796584;79;26919;-64
2024/03/20 06:17:41;;;;;;;50.73;24.63;;;;;;;0.12;93.76;101054.50;1785136;78;25953;-62
2024/03/20 06:20:08;;;;;;;51.63;24.85;;;;;;;0.25;94.06;101059.69;1792131;78;25628;-63
2024/03/20 06:22:35;;;;;;;48.87;23.95;;;;;;;0.40;94.19;101064.66;1799257;79;25601;-62
2024/03/20 06:25:08;;;;;;;51.30;22.77;;;;;;;0.51;94.29;101063.92;1785512;79;25827;-62
2024/03/20 06:27:38;;;;;;;45.43;22.35;;;;;;;0.64;94.22;101070.11;1776588;79;27921;-63
2024/03/20 06:30:15;;;;;;;50.70;23.98;;;;;;;0.73;94.18;101072.25;1791594;79;25749;-64
2024/03/20 06:32:47;;;;;;;48.50;22.62;;;;;;;0.85;94.20;101072.31;1799040;79;25666;-64
2024/03/20 06:35:15;;;;;;;52.67;25.80;;;;;;;0.97;94.31;101076.36;1779269;79;25803;-61
2024/03/20 06:37:42;;;;;;;47.93;21.70;;;;;;;1.09;94.33;101081.70;1794498;79;25397;-63
2024/03/20 06:40:12;;;;;;;46.90;23.65;;;;;;;1.18;94.25;101078.23;1782851;78;27319;-60
2024/03/20 06:42:41;;;;;;;38.95;20.77;;;;;;;1.30;94.50;101086.53;1794666;79;25950;-63
2024/03/20 06:45:13;;;;;;;37.13;21.12;;;;;;;1.39;93.72;101087.55;1796319;79;25190;-69
2024/03/20 06:47:43;;;;;;;36.58;21.02;;;;;;;1.46;93.60;101086.92;1789680;79;25909;-60
2024/03/20 06:50:15;;;;;;;39.60;22.87;;;;;;;1.55;93.72;101082.90;1785236;79;25403;-63
2024/03/20 06:52:43;;;;;;;40.98;23.92;;;;;;;1.62;93.36;101088.13;1791257;79;27314;-63
2024/03/20 06:55:14;;;;;;;41.25;21.80;;;;;;;1.68;93.32;101093.33;1776447;79;25410;-64
2024/03/20 06:57:38;;;;;;;37.53;21.93;;;;;;;1.74;93.16;101093.45;1779650;79;25650;-64
2024/03/20 07:00:20;;;;;;;35.35;19.45;;;;;;;1.82;93.31;101091.28;1792046;79;26017;-61
2024/03/20 07:02:48;;;;;;;36.20;20.57;;;;;;;1.92;93.24;101092.02;1783142;79;25406;-62
2024/03/20 07:05:19;;;;;;;34.43;19.37;;;;;;;2.00;93.35;101099.69;1804929;79;28027;-63
2024/03/20 07:07:47;;;;;;;32.20;18.95;;;;;;;2.09;92.58;101103.34;1776651;79;25407;-63
2024/03/20 07:10:21;;;;;;;33.00;18.77;;;;;;;2.11;91.92;101100.75;1799100;79;25893;-63
2024/03/20 07:12:50;;;;;;;25.32;14.80;;;;;;;2.13;91.57;101100.49;1801672;79;25967;-63
2024/03/20 07:15:18;;;;;;;31.42;17.10;;;;;;;2.16;91.58;101098.70;1782728;79;25575;-63
2024/03/20 07:17:45;;;;;;;27.00;16.00;;;;;;;2.19;91.19;101095.57;1788261;79;27276;-63
2024/03/20 07:20:12;;;;;;;31.90;17.07;;;;;;;2.24;91.62;101092.48;1787430;79;25737;-63
2024/03/20 07:22:40;;;;;;;29.50;17.90;;;;;;;2.32;91.83;101083.84;1784642;78;25551;-61
2024/03/20 07:25:10;;;;;;;25.37;15.70;;;;;;;2.39;91.67;101088.00;1800505;79;25804;-62
2024/03/20 07:27:38;;;;;;;24.72;15.40;;;;;;;2.44;91.04;101092.64;1784365;79;25500;-62
2024/03/20 07:30:15;;;;;;;25.55;15.55;;;;;;;2.43;90.35;101095.84;1796468;79;27728;-61
2024/03/20 07:32:48;;;;;;;24.27;14.83;;;;;;;2.47;90.49;101101.53;1782311;79;25437;-63
2024/03/20 07:35:22;;;;;;;24.15;14.65;;;;;;;2.49;90.33;101100.77;1790180;78;26060;-63
2024/03/20 07:37:50;;;;;;;21.17;12.78;;;;;;;2.47;89.36;101098.02;1789779;78;25613;-61
2024/03/20 07:40:17;;;;;;;23.98;13.72;;;;;;;2.45;89.19;101092.11;1801171;79;25894;-62
2024/03/20 07:42:46;;;;;;;21.62;13.22;;;;;;;2.48;89.64;101089.78;1795122;78;27294;-60
2024/03/20 07:45:12;;;;;;;23.32;14.25;;;;;;;2.49;89.74;101088.75;1800812;79;25523;-69
2024/03/20 07:47:39;;;;;;;22.35;13.85;;;;;;;2.55;89.43;101093.66;1785100;78;25541;-60
2024/03/20 07:50:14;;;;;;;21.20;13.38;;;;;;;2.56;89.11;101091.29;1797990;79;26147;-61
2024/03/20 07:52:41;;;;;;;24.45;14.65;;;;;;;2.61;89.46;101094.87;1782348;79;25607;-63
2024/03/20 07:55:11;;;;;;;23.60;14.55;;;;;;;2.67;89.18;101089.62;1779499;79;27201;-63
2024/03/20 07:57:39;;;;;;;25.43;14.90;;;;;;;2.71;89.22;101086.79;1797441;78;26216;-62
2024/03/20 08:00:15;;;;;;;23.73;14.13;;;;;;;2.76;89.39;101086.36;1796042;79;25793;-61
2024/03/20 08:02:40;;;;;;;21.93;13.25;;;;;;;2.83;89.16;101088.06;1792030;79;25784;-62
2024/03/20 08:05:11;;;;;;;26.10;15.20;;;;;;;2.87;88.29;101090.56;1794169;78;25304;-62
2024/03/20 08:07:39;;;;;;;25.15;14.55;;;;;;;2.90;87.97;101090.09;1788399;79;27312;-62
2024/03/20 08:10:12;;;;;;;23.60;14.78;;;;;;;2.95;88.00;101087.52;1781306;79;25516;-62
2024/03/20 08:12:43;;;;;;;23.87;14.95;;;;;;;3.03;88.38;101083.64;1787531;79;25906;-60
2024/03/20 08:15:11;;;;;;;24.55;13.83;;;;;;;3.14;88.88;101082.25;1785676;79;25994;-68
2024/03/20 08:17:39;;;;;;;24.87;14.50;;;;;;;3.22;87.95;101087.75;1800716;78;25418;-64
2024/03/20 08:20:12;;;;;;;24.45;15.08;;;;;;;3.28;88.24;101081.42;1785602;79;27546;-61
2024/03/20 08:22:35;;;;;;;23.40;14.25;;;;;;;3.36;88.60;101079.70;1785453;79;25581;-63
2024/03/20 08:25:02;;;;;;;27.42;15.48;;;;;;;3.48;88.84;101080.16;1785542;79;25488;-62
2024/03/20 08:27:29;;;;;;;23.25;14.70;;;;;;;3.60;88.85;101086.78;1794291;79;25677;-62
2024/03/20 08:29:59;;;;;;;24.23;15.48;;;;;;;3.69;88.01;101091.46;1800707;78;25415;-57
2024/03/20 08:32:26;;;;;;;;;;;;;;;3.72;87.40;101078.14;1784084;79;27383;-54
2024/03/20 08:34:53;;;;;;;21.87;13.65;;;;;;;3.79;87.29;101080.66;1784507;79;25796;-57
2024/03/20 08:37:19;;;;;;;22.95;14.78;;;;;;;3.85;86.72;101086.38;1786110;79;25797;-52
2024/03/20 08:39:46;;;;;;;23.98;15.20;;;;;;;3.87;86.27;101080.25;1784792;79;25677;-56
2024/03/20 08:42:12;;;;;;;27.65;14.87;;;;;;;3.86;86.10;101076.73;1776994;79;25582;-56
2024/03/20 08:44:42;;;;;;;25.85;15.43;;;;;;;3.82;85.34;101075.62;1791675;79;27303;-57
2024/03/20 08:47:12;;;;;;;26.23;16.57;;;;;;;3.83;84.90;101080.44;1793029;79;25475;-56
2024/03/20 08:49:38;;;;;;;26.15;15.78;;;;;;;3.81;85.15;101080.67;1776440;79;25709;-53
2024/03/20 08:52:06;;;;;;;28.55;17.23;;;;;;;3.87;85.24;101086.94;1796448;79;25839;-54
2024/03/20 08:54:40;;;;;;;27.80;17.48;;;;;;;3.95;85.57;101087.87;1782322;79;25504;-54
2024/03/20 08:57:07;;;;;;;28.83;16.80;;;;;;;3.96;84.85;101084.13;1788024;79;27427;-54
2024/03/20 08:59:33;;;;;;;26.42;17.12;;;;;;;3.95;84.43;101087.04;1785308;79;25782;-57
2024/03/20 09:02:02;;;;;;;28.42;17.70;;;;;;;3.97;84.31;101092.45;1788538;79;25590;-55
2024/03/20 09:04:30;;;;;;;26.48;16.60;;;;;;;4.02;85.16;101093.03;1783787;79;26283;-53
2024/03/20 09:06:56;;;;;;;27.87;16.82;;;;;;;4.14;85.45;101100.46;1810316;79;25693;-57
2024/03/20 09:09:25;;;;;;;27.95;16.42;;;;;;;4.22;85.79;101101.38;1792123;79;27328;-54
2024/03/20 09:11:52;;;;;;;30.12;17.05;;;;;;;4.31;85.70;101095.07;1791528;79;27108;-56
2024/03/20 09:14:19;;;;;;;27.60;16.40;;;;;;;4.39;85.18;101098.67;1796847;79;25752;-57
2024/03/20 09:16:49;;;;;;;27.37;16.37;;;;;;;4.45;85.08;101096.32;1787800;79;25592;-56
2024/03/20 09:19:13;;;;;;;26.15;16.85;;;;;;;4.51;84.14;101101.74;1788295;78;25522;-57
2024/03/20 09:21:39;;;;;;;24.80;15.60;;;;;;;4.54;84.19;101106.07;1791835;79;28117;-57
2024/03/20 09:24:06;;;;;;;26.68;16.32;;;;;;;4.62;84.25;101102.16;1782672;79;25754;-57
2024/03/20 09:26:34;;;;;;;24.63;16.00;;;;;;;4.69;83.81;101100.10;1788026;79;25584;-56
2024/03/20 09:29:01;;;;;;;26.87;16.70;;;;;;;4.73;83.54;101094.51;1791556;79;25950;-52
2024/03/20 09:31:29;;;;;;;29.32;17.00;;;;;;;4.82;83.87;101097.59;1789283;79;25795;-57
2024/03/20 09:33:55;;;;;;;26.87;16.93;;;;;;;4.94;84.20;101092.89;1778519;78;27381;-59
2024/03/20 09:36:21;;;;;;;25.95;16.30;;;;;;;5.09;84.37;101092.25;1796649;79;25376;-52
2024/03/20 09:38:48;;;;;;;27.50;15.43;;;;;;;5.23;83.92;101097.48;1791171;79;25795;-54
2024/03/20 09:41:17;;;;;;;25.95;15.28;;;;;;;5.32;83.18;101096.48;1791272;79;25967;-55
2024/03/20 09:43:45;;;;;;;24.72;15.32;;;;;;;5.46;83.66;101090.17;1785226;79;25610;-57
2024/03/20 09:46:15;;;;;;;20.32;14.43;;;;;;;5.66;84.34;101088.20;1793934;79;27897;-56
2024/03/20 09:48:52;;;;;;;23.55;14.10;;;;;;;5.88;83.15;101079.23;1784654;79;25733;-56
2024/03/20 09:51:20;;;;;;;23.70;14.33;;;;;;;6.07;83.13;101077.77;1798176;79;25878;-55
2024/03/20 09:53:50;;;;;;;23.73;14.75;;;;;;;6.33;83.00;101082.77;1777889;79;25618;-55
2024/03/20 09:56:20;;;;;;;23.05;15.10;;;;;;;6.62;83.52;101081.00;1794150;79;25395;-55
2024/03/20 09:58:48;;;;;;;24.27;14.65;;;;;;;6.96;81.91;101091.88;1794329;79;27383;-54
2024/03/20 10:01:23;;;;;;;26.35;15.13;;;;;;;7.36;83.49;101082.28;1789585;79;25454;-55
2024/03/20 10:03:56;;;;;;;22.93;15.05;;;;;;;7.85;81.57;101083.08;1799309;79;25625;-55
2024/03/20 10:06:25;;;;;;;20.12;13.62;;;;;;;8.07;79.95;101073.35;1803057;79;25929;-57
2024/03/20 10:08:52;;;;;;;20.48;13.30;;;;;;;8.57;81.33;101068.89;1793155;79;25950;-54
2024/03/20 10:11:19;;;;;;;20.75;14.30;;;;;;;9.09;80.10;101068.62;1754797;79;27357;-57
2024/03/20 10:13:47;;;;;;;19.80;13.43;;;;;;;9.45;78.76;101067.84;1776287;79;25662;-57
2024/03/20 10:16:17;;;;;;;18.55;13.60;;;;;;;10.02;78.38;101068.13;1785258;79;25746;-56
2024/03/20 10:18:46;;;;;;;24.02;14.75;;;;;;;10.38;76.34;101065.61;1800473;78;25624;-56
2024/03/20 10:21:13;;;;;;;20.50;13.00;;;;;;;10.52;74.16;101066.53;1785086;79;25532;-55
2024/03/20 10:23:45;;;;;;;17.12;12.65;;;;;;;10.48;72.37;101068.75;1794396;78;27382;-56
2024/03/20 10:26:17;;;;;;;16.73;11.68;;;;;;;10.40;71.12;101067.47;1789558;79;25633;-56
2024/03/20 10:28:47;;;;;;;23.65;12.63;;;;;;;10.42;70.62;101059.87;1797968;79;25776;-53
2024/03/20 10:31:19;;;;;;;14.90;11.22;;;;;;;10.46;70.63;101063.63;1775890;78;25619;-57
2024/03/20 10:33:50;;;;;;;17.90;13.03;;;;;;;10.57;70.64;101062.94;1793201;79;25837;-58
2024/03/20 10:36:18;;;;;;;19.17;12.30;;;;;;;10.68;70.41;101067.70;1785891;79;27408;-57
2024/03/20 10:38:48;;;;;;;12.23;9.55;;;;;;;10.95;70.14;101060.30;1799823;79;25550;-58
2024/03/20 10:41:16;;;;;;;13.58;9.43;;;;;;;11.02;68.13;101058.02;1794318;79;25847;-56
2024/03/20 10:43:46;;;;;;;12.90;8.68;;;;;;;11.64;71.88;101053.77;1794304;78;25683;-57
2024/03/20 10:46:19;;;;;;;12.40;7.95;;;;;;;12.11;68.95;101052.44;1782696;79;25621;-54
2024/03/20 10:48:47;;;;;;;11.75;8.13;;;;;;;12.60;68.16;101045.48;1800318;78;27292;-54
2024/03/20 10:51:15;;;;;;;11.80;7.95;;;;;;;12.98;67.57;101038.95;1802938;79;25594;-55
2024/03/20 10:53:43;;;;;;;12.80;9.18;;;;;;;13.98;68.73;101043.30;1789618;79;25907;-57
2024/03/20 10:56:19;;;;;;;11.68;7.92;;;;;;;14.81;66.44;101039.84;1766122;78;25663;-56
2024/03/20 10:59:01;;;;;;;13.85;8.68;;;;;;;15.78;64.76;101042.75;1796540;79;25795;-55
2024/03/20 11:01:27;;;;;;;12.65;8.80;;;;;;;16.34;59.43;101041.28;1781718;79;27951;-55
2024/03/20 11:03:56;;;;;;;13.58;8.88;;;;;;;16.03;56.37;101043.75;1794212;79;25627;-55
2024/03/20 11:06:31;;;;;;;12.85;8.55;;;;;;;15.97;55.10;101038.27;1792932;78;25481;-55
2024/03/20 11:09:03;;;;;;;13.62;8.93;;;;;;;15.78;54.28;101032.38;1793357;79;26298;-55
2024/03/20 11:11:38;;;;;;;11.33;8.50;;;;;;;16.55;56.00;101029.59;1788646;79;25621;-56
2024/03/20 11:14:10;;;;;;;11.30;7.87;;;;;;;16.67;51.74;101026.14;1763498;78;27199;-57
2024/03/20 11:16:40;;;;;;;11.12;7.83;;;;;;;17.06;53.87;101019.45;1793422;79;25523;-56